Time;durP1;ratioP1;P1;durP2;ratioP2;P2;SDS_P1;SDS_P2;PMS_P1;PMS_P2;Temp;Humidity;BMP_temperature;BMP_pressure;BME280_temperature;BME280_humidity;BME280_pressure;Samples;Min_cycle;Max_cycle;Signal;HPM_P1;HPM_P2
2023/08/19 00:01:30;;;;;;;0.45;0.45;;;22.70;99.90;;;;;;4406910;32;20091;-74
2023/08/19 00:03:55;;;;;;;0.70;0.55;;;22.70;99.90;;;;;;4406196;32;20094;-75
2023/08/19 00:06:33;;;;;;;1.35;1.12;;;22.70;99.90;;;;;;4406348;32;20117;-74
2023/08/19 00:08:59;;;;;;;0.43;0.43;;;22.70;99.90;;;;;;4406504;32;20081;-74
2023/08/19 00:11:25;;;;;;;2.40;0.88;;;22.70;99.90;;;;;;4405682;32;20087;-74
2023/08/19 00:13:51;;;;;;;0.75;0.43;;;22.70;99.90;;;;;;4406554;32;20070;-75
2023/08/19 00:16:17;;;;;;;1.10;0.52;;;22.70;99.90;;;;;;4406776;32;20054;-74
2023/08/19 00:18:43;;;;;;;0.52;0.52;;;22.60;99.90;;;;;;4408813;32;20079;-74
2023/08/19 00:21:08;;;;;;;0.60;0.60;;;22.60;99.90;;;;;;4408410;32;20066;-74
2023/08/19 00:23:34;;;;;;;2.08;0.65;;;22.50;99.90;;;;;;4407989;32;20082;-74
2023/08/19 00:25:59;;;;;;;0.30;0.30;;;22.50;99.90;;;;;;4410026;32;20074;-74
2023/08/19 00:28:25;;;;;;;1.12;0.73;;;22.50;99.90;;;;;;4409349;32;20069;-74
2023/08/19 00:30:51;;;;;;;0.47;0.47;;;22.50;99.90;;;;;;4411146;32;20106;-74
2023/08/19 00:33:16;;;;;;;0.40;0.32;;;22.50;99.90;;;;;;4409694;32;20098;-74
2023/08/19 00:35:42;;;;;;;0.35;0.35;;;22.50;99.90;;;;;;4410571;32;20087;-74
2023/08/19 00:38:07;;;;;;;2.05;0.88;;;22.40;99.90;;;;;;4410182;32;20550;-73
2023/08/19 00:40:33;;;;;;;0.55;0.55;;;22.40;99.90;;;;;;4410190;32;20090;-74
2023/08/19 00:42:58;;;;;;;0.75;0.50;;;22.30;99.90;;;;;;4411326;32;20078;-73
2023/08/19 00:45:24;;;;;;;0.50;0.50;;;22.30;99.90;;;;;;4410195;32;20075;-73
2023/08/19 00:47:50;;;;;;;0.60;0.60;;;22.30;99.90;;;;;;4408886;32;20077;-74
2023/08/19 00:50:16;;;;;;;0.65;0.52;;;22.20;99.90;;;;;;4410016;32;20070;-74
2023/08/19 00:52:43;;;;;;;0.30;0.30;;;22.20;99.90;;;;;;4409766;32;20118;-74
2023/08/19 00:55:10;;;;;;;2.72;1.55;;;22.20;99.90;;;;;;4409644;32;20081;-74
2023/08/19 00:57:37;;;;;;;0.30;0.30;;;22.20;99.90;;;;;;4408357;32;20132;-74
2023/08/19 01:00:04;;;;;;;2.70;1.35;;;22.10;99.90;;;;;;4409962;32;20078;-74
2023/08/19 01:02:29;;;;;;;0.75;0.50;;;22.10;99.90;;;;;;4400102;32;20075;-75
2023/08/19 01:04:55;;;;;;;0.88;0.88;;;22.10;99.90;;;;;;4394568;32;20059;-75
2023/08/19 01:07:45;;;;;;;0.57;0.40;;;22.10;99.90;;;;;;4395502;32;20122;-74
2023/08/19 01:10:35;;;;;;;0.73;0.73;;;22.10;99.90;;;;;;4397758;32;20071;-74
2023/08/19 01:13:19;;;;;;;2.30;1.08;;;22.00;99.90;;;;;;4397481;32;20144;-74
2023/08/19 01:15:53;;;;;;;0.60;0.60;;;22.00;99.90;;;;;;4409453;32;20121;-74
2023/08/19 01:18:19;;;;;;;2.25;1.25;;;21.90;99.90;;;;;;4410393;32;20121;-74
2023/08/19 01:20:46;;;;;;;1.65;0.85;;;22.00;99.90;;;;;;4410059;32;20034;-74
2023/08/19 01:23:23;;;;;;;0.50;0.50;;;21.90;99.90;;;;;;4410472;32;20079;-73
2023/08/19 01:25:48;;;;;;;0.40;0.40;;;21.90;99.90;;;;;;4410665;32;20075;-74
2023/08/19 01:28:14;;;;;;;1.17;0.70;;;21.90;99.90;;;;;;4411173;32;20121;-74
2023/08/19 01:30:40;;;;;;;0.40;0.40;;;21.80;99.90;;;;;;4410166;32;20081;-75
2023/08/19 01:33:06;;;;;;;1.45;1.08;;;21.90;99.90;;;;;;4410348;32;20082;-75
2023/08/19 01:35:37;;;;;;;0.98;0.70;;;21.90;99.90;;;;;;4410758;32;20066;-74
2023/08/19 01:38:10;;;;;;;5.05;0.75;;;21.90;99.90;;;;;;4410780;32;20062;-74
2023/08/19 01:40:37;;;;;;;0.75;0.65;;;21.90;99.90;;;;;;4409672;32;20082;-74
2023/08/19 01:43:05;;;;;;;0.75;0.60;;;21.80;99.90;;;;;;4409558;32;20094;-75
2023/08/19 01:45:31;;;;;;;0.75;0.50;;;21.70;99.90;;;;;;4410152;32;20082;-75
2023/08/19 01:47:57;;;;;;;0.82;0.77;;;21.80;99.90;;;;;;4412136;32;20093;-75
2023/08/19 01:50:22;;;;;;;0.55;0.55;;;21.80;99.90;;;;;;4411502;32;20062;-75
2023/08/19 01:52:48;;;;;;;0.35;0.35;;;21.80;99.90;;;;;;4411308;32;20096;-75
2023/08/19 01:55:14;;;;;;;0.50;0.50;;;21.80;99.90;;;;;;4411231;32;20070;-75
2023/08/19 01:57:39;;;;;;;0.50;0.50;;;21.70;99.90;;;;;;4410490;32;20087;-75
2023/08/19 02:00:07;;;;;;;3.42;1.02;;;21.70;99.90;;;;;;4410689;32;20121;-74
2023/08/19 02:02:32;;;;;;;0.40;0.40;;;21.70;99.90;;;;;;4397800;32;20082;-75
2023/08/19 02:04:57;;;;;;;0.32;0.32;;;21.70;99.90;;;;;;4410866;32;20082;-75
2023/08/19 02:07:23;;;;;;;0.40;0.40;;;21.60;99.90;;;;;;4411058;32;20070;-74
2023/08/19 02:09:48;;;;;;;1.40;0.50;;;21.60;99.90;;;;;;4410901;32;20079;-74
2023/08/19 02:12:14;;;;;;;1.17;0.80;;;21.70;99.90;;;;;;4410778;32;20534;-75
2023/08/19 02:14:39;;;;;;;1.65;0.68;;;21.70;99.90;;;;;;4410242;32;20612;-75
2023/08/19 02:17:05;;;;;;;0.93;0.82;;;21.60;99.90;;;;;;4409670;32;20073;-75
2023/08/19 02:19:30;;;;;;;0.45;0.45;;;21.60;99.90;;;;;;4409943;32;20057;-75
2023/08/19 02:21:56;;;;;;;0.73;0.65;;;21.60;99.90;;;;;;4409977;32;20479;-75
2023/08/19 02:24:21;;;;;;;0.40;0.40;;;21.60;99.90;;;;;;4409724;32;20065;-75
2023/08/19 02:26:47;;;;;;;0.52;0.52;;;21.60;99.90;;;;;;4410965;32;20082;-74
2023/08/19 02:29:12;;;;;;;2.35;0.65;;;21.50;99.90;;;;;;4410681;32;20090;-74
2023/08/19 02:31:38;;;;;;;1.02;0.90;;;21.50;99.90;;;;;;4409835;32;20074;-74
2023/08/19 02:34:04;;;;;;;2.40;1.15;;;21.50;99.90;;;;;;4409185;32;20518;-74
2023/08/19 02:36:29;;;;;;;0.90;0.75;;;21.50;99.90;;;;;;4409745;32;20066;-75
2023/08/19 02:38:55;;;;;;;1.73;0.65;;;21.50;99.90;;;;;;4409576;32;20099;-74
2023/08/19 02:41:20;;;;;;;0.30;0.30;;;21.40;99.90;;;;;;4409675;32;20066;-74
2023/08/19 02:43:46;;;;;;;1.25;0.75;;;21.40;99.90;;;;;;4409251;32;20483;-74
2023/08/19 02:46:11;;;;;;;0.22;0.22;;;21.30;99.90;;;;;;4407677;32;20051;-74
2023/08/19 02:48:37;;;;;;;0.52;0.50;;;21.40;99.90;;;;;;4410156;32;20174;-73
2023/08/19 02:51:02;;;;;;;2.25;1.60;;;21.30;99.90;;;;;;4408975;32;20066;-75
2023/08/19 02:53:28;;;;;;;0.52;0.52;;;21.30;99.90;;;;;;4408806;32;20073;-73
2023/08/19 02:55:54;;;;;;;1.15;0.45;;;21.40;99.90;;;;;;4409944;32;20078;-74
2023/08/19 02:58:20;;;;;;;0.55;0.50;;;21.40;99.90;;;;;;4409290;32;20123;-74
2023/08/19 03:00:47;;;;;;;0.77;0.68;;;21.30;99.90;;;;;;4409276;32;20065;-74
2023/08/19 03:03:12;;;;;;;4.28;1.33;;;21.30;99.90;;;;;;4409596;32;20075;-75
2023/08/19 03:05:38;;;;;;;0.55;0.55;;;21.30;99.90;;;;;;4409166;32;20066;-74
2023/08/19 03:08:07;;;;;;;0.55;0.55;;;21.30;99.90;;;;;;4409159;32;20082;-74
2023/08/19 03:10:34;;;;;;;0.65;0.65;;;21.30;99.90;;;;;;4408672;32;20074;-74
2023/08/19 03:12:59;;;;;;;4.47;1.05;;;21.20;99.90;;;;;;4408550;32;20079;-74
2023/08/19 03:15:25;;;;;;;0.98;0.70;;;21.20;99.90;;;;;;4408552;32;20070;-74
2023/08/19 03:17:51;;;;;;;0.70;0.70;;;21.20;99.90;;;;;;4408546;32;20083;-74
2023/08/19 03:20:16;;;;;;;0.50;0.50;;;21.20;99.90;;;;;;4409102;32;20070;-74
2023/08/19 03:22:42;;;;;;;2.20;0.85;;;21.20;99.90;;;;;;4408070;32;20089;-74
2023/08/19 03:25:08;;;;;;;2.35;1.02;;;21.20;99.90;;;;;;4408588;32;20151;-74
2023/08/19 03:27:33;;;;;;;1.30;0.70;;;21.10;99.90;;;;;;4408452;32;20095;-74
2023/08/19 03:29:59;;;;;;;2.17;1.12;;;21.10;99.90;;;;;;4407497;32;20078;-75
2023/08/19 03:32:24;;;;;;;0.88;0.85;;;21.10;99.90;;;;;;4407259;32;20209;-74
2023/08/19 03:34:50;;;;;;;1.17;0.40;;;21.00;99.90;;;;;;4406171;32;20070;-74
2023/08/19 03:37:15;;;;;;;0.35;0.35;;;21.00;99.90;;;;;;4407465;32;20117;-76
2023/08/19 03:39:41;;;;;;;3.65;1.65;;;21.00;99.90;;;;;;4407044;32;20087;-75
2023/08/19 03:42:06;;;;;;;1.23;1.05;;;21.00;99.90;;;;;;4406228;32;20129;-74
2023/08/19 03:44:32;;;;;;;1.50;0.70;;;21.00;99.90;;;;;;4407122;32;20085;-74
2023/08/19 03:46:57;;;;;;;0.50;0.50;;;21.00;99.90;;;;;;4406460;32;20066;-74
2023/08/19 03:49:23;;;;;;;1.75;1.12;;;20.90;99.90;;;;;;4406477;32;20074;-74
2023/08/19 03:51:48;;;;;;;1.10;0.95;;;20.90;99.90;;;;;;4406966;32;20070;-76
2023/08/19 03:54:13;;;;;;;0.85;0.75;;;20.90;99.90;;;;;;4407339;32;20078;-73
2023/08/19 03:56:39;;;;;;;0.30;0.30;;;21.00;99.90;;;;;;4408295;32;20117;-74
2023/08/19 03:59:04;;;;;;;0.68;0.60;;;20.90;99.90;;;;;;4409422;32;20521;-74
2023/08/19 04:01:30;;;;;;;0.65;0.65;;;20.90;99.90;;;;;;4406884;32;20066;-74
2023/08/19 04:03:55;;;;;;;0.60;0.60;;;20.90;99.90;;;;;;4394808;32;20083;-74
2023/08/19 04:06:21;;;;;;;1.27;0.80;;;20.90;99.90;;;;;;4393440;32;20091;-74
2023/08/19 04:08:46;;;;;;;0.88;0.85;;;20.90;99.90;;;;;;4393700;32;20198;-74
2023/08/19 04:11:12;;;;;;;1.15;0.95;;;20.80;99.90;;;;;;4406386;32;20079;-74
2023/08/19 04:13:37;;;;;;;0.60;0.60;;;20.80;99.90;;;;;;4408107;32;20077;-74
2023/08/19 04:16:05;;;;;;;1.00;0.80;;;20.80;99.90;;;;;;4408645;32;20116;-74
2023/08/19 04:18:31;;;;;;;0.60;0.50;;;20.70;99.90;;;;;;4408482;32;20089;-74
2023/08/19 04:20:57;;;;;;;0.57;0.57;;;20.80;99.90;;;;;;4408167;32;20066;-74
2023/08/19 04:23:23;;;;;;;1.77;0.90;;;20.80;99.90;;;;;;4409259;32;20082;-75
2023/08/19 04:25:48;;;;;;;0.62;0.62;;;20.80;99.90;;;;;;4409146;32;20083;-75
2023/08/19 04:28:14;;;;;;;0.98;0.60;;;20.80;99.90;;;;;;4408678;32;20101;-75
2023/08/19 04:30:40;;;;;;;0.60;0.60;;;20.90;99.90;;;;;;4407957;32;20591;-74
2023/08/19 04:33:06;;;;;;;5.00;0.95;;;20.90;99.90;;;;;;4407851;32;20078;-75
2023/08/19 04:35:31;;;;;;;1.08;0.60;;;20.90;99.90;;;;;;4407564;32;20077;-75
2023/08/19 04:37:57;;;;;;;0.88;0.73;;;21.00;99.90;;;;;;4407588;32;20066;-74
2023/08/19 04:40:22;;;;;;;6.05;1.00;;;21.00;99.90;;;;;;4398578;32;20083;-73
2023/08/19 04:42:48;;;;;;;0.57;0.57;;;20.90;99.90;;;;;;4392430;32;20546;-74
2023/08/19 04:45:14;;;;;;;0.70;0.70;;;21.00;99.90;;;;;;4399727;32;20090;-73
2023/08/19 04:47:40;;;;;;;0.43;0.43;;;21.00;99.90;;;;;;4408458;32;20123;-73
2023/08/19 04:50:08;;;;;;;0.57;0.57;;;21.00;99.90;;;;;;4407539;32;20132;-74
2023/08/19 04:52:34;;;;;;;0.70;0.37;;;21.00;99.90;;;;;;4407390;32;20625;-74
2023/08/19 04:55:00;;;;;;;0.37;0.37;;;21.00;99.90;;;;;;4407885;32;20066;-75
2023/08/19 04:57:25;;;;;;;1.10;0.73;;;21.10;99.90;;;;;;4409129;32;20066;-74
2023/08/19 04:59:51;;;;;;;0.65;0.60;;;21.10;99.90;;;;;;4408463;32;20074;-74
2023/08/19 05:02:16;;;;;;;1.17;0.88;;;21.10;99.90;;;;;;4408545;32;20070;-74
2023/08/19 05:04:42;;;;;;;0.62;0.57;;;21.20;99.90;;;;;;4408496;32;20082;-75
2023/08/19 05:07:07;;;;;;;0.55;0.55;;;21.20;99.90;;;;;;4408094;32;20079;-74
2023/08/19 05:09:32;;;;;;;0.90;0.80;;;21.30;99.90;;;;;;4408812;32;20078;-75
2023/08/19 05:11:58;;;;;;;0.60;0.60;;;21.40;99.90;;;;;;4409243;32;20062;-74
2023/08/19 05:14:25;;;;;;;0.30;0.30;;;21.30;99.90;;;;;;4407345;32;20082;-74
2023/08/19 05:16:51;;;;;;;0.85;0.73;;;21.40;99.90;;;;;;4407375;32;20113;-74
2023/08/19 05:19:18;;;;;;;0.60;0.60;;;21.40;99.90;;;;;;4409858;32;20103;-74
2023/08/19 05:21:44;;;;;;;2.28;1.10;;;21.40;99.90;;;;;;4408862;32;20066;-73
2023/08/19 05:24:11;;;;;;;1.42;0.80;;;21.40;99.90;;;;;;4408046;32;20078;-74
2023/08/19 05:26:39;;;;;;;0.47;0.47;;;21.40;99.90;;;;;;4407640;32;20458;-75
2023/08/19 05:29:04;;;;;;;0.37;0.37;;;21.50;99.90;;;;;;4407336;32;20081;-74
2023/08/19 05:31:30;;;;;;;4.18;1.10;;;21.50;99.90;;;;;;4408245;32;20075;-74
2023/08/19 05:33:55;;;;;;;0.95;0.90;;;21.60;99.90;;;;;;4409481;32;20065;-74
2023/08/19 05:36:21;;;;;;;0.52;0.52;;;21.60;99.90;;;;;;4408484;32;20079;-74
2023/08/19 05:38:46;;;;;;;1.05;0.93;;;21.60;99.90;;;;;;4408779;32;20070;-74
2023/08/19 05:41:12;;;;;;;1.20;0.70;;;21.60;99.90;;;;;;4409156;32;20437;-74
2023/08/19 05:43:37;;;;;;;0.73;0.73;;;21.60;99.90;;;;;;4408260;32;20070;-74
2023/08/19 05:46:05;;;;;;;3.22;0.98;;;21.70;99.90;;;;;;4408185;32;20167;-75
2023/08/19 05:48:31;;;;;;;1.48;1.02;;;21.70;99.90;;;;;;4406725;32;20087;-75
2023/08/19 05:50:56;;;;;;;0.85;0.80;;;21.80;99.90;;;;;;4407264;32;20066;-75
2023/08/19 05:53:22;;;;;;;0.88;0.88;;;21.80;99.90;;;;;;4407991;32;20086;-75
2023/08/19 05:55:47;;;;;;;0.90;0.82;;;21.80;99.90;;;;;;4408624;32;20083;-75
2023/08/19 05:58:13;;;;;;;0.68;0.68;;;21.90;99.90;;;;;;4408673;32;20174;-75
2023/08/19 06:00:39;;;;;;;0.65;0.65;;;21.90;99.90;;;;;;4408905;32;20067;-76
2023/08/19 06:03:04;;;;;;;0.28;0.28;;;21.80;99.90;;;;;;4408124;32;20074;-76
2023/08/19 06:05:30;;;;;;;0.62;0.62;;;21.90;99.90;;;;;;4407785;32;20070;-75
2023/08/19 06:07:55;;;;;;;0.43;0.43;;;21.90;99.90;;;;;;4408403;32;20077;-75
2023/08/19 06:10:21;;;;;;;1.25;0.77;;;21.90;99.90;;;;;;4407970;32;20109;-75
2023/08/19 06:12:46;;;;;;;0.57;0.57;;;21.90;99.90;;;;;;4406405;32;20073;-76
2023/08/19 06:15:12;;;;;;;0.40;0.40;;;21.90;99.90;;;;;;4406028;32;20062;-75
2023/08/19 06:17:37;;;;;;;0.77;0.62;;;22.00;99.90;;;;;;4406593;32;20066;-75
2023/08/19 06:20:03;;;;;;;0.85;0.80;;;21.90;99.90;;;;;;4406325;32;20065;-75
2023/08/19 06:22:29;;;;;;;0.85;0.65;;;22.00;99.90;;;;;;4405927;32;20493;-75
2023/08/19 06:24:54;;;;;;;8.15;0.80;;;22.00;99.90;;;;;;4405787;32;20074;-76
2023/08/19 06:27:20;;;;;;;1.20;1.10;;;22.00;99.90;;;;;;4407213;32;20070;-75
2023/08/19 06:29:45;;;;;;;0.85;0.60;;;21.90;99.90;;;;;;4407120;32;20126;-75
2023/08/19 06:32:11;;;;;;;0.80;0.75;;;21.90;99.90;;;;;;4406219;32;20093;-75
2023/08/19 06:34:37;;;;;;;0.47;0.45;;;21.90;99.90;;;;;;4407060;32;20067;-75
2023/08/19 06:37:04;;;;;;;1.37;0.75;;;22.00;99.90;;;;;;4406976;32;20070;-75
2023/08/19 06:39:32;;;;;;;0.82;0.73;;;22.00;99.90;;;;;;4407611;32;20058;-75
2023/08/19 06:42:02;;;;;;;1.73;0.65;;;22.00;99.90;;;;;;4407209;32;20510;-75
2023/08/19 06:44:29;;;;;;;0.47;0.45;;;22.00;99.90;;;;;;4407614;32;20178;-75
2023/08/19 06:46:56;;;;;;;1.23;1.05;;;22.10;99.90;;;;;;4407789;32;20462;-75
2023/08/19 06:49:22;;;;;;;0.95;0.80;;;22.10;99.90;;;;;;4406936;32;20085;-75
2023/08/19 06:51:48;;;;;;;2.42;1.15;;;22.10;99.90;;;;;;4406051;32;20082;-75
2023/08/19 06:54:13;;;;;;;1.10;0.70;;;22.10;99.90;;;;;;4406696;32;20078;-75
2023/08/19 06:57:04;;;;;;;1.20;0.73;;;22.20;99.90;;;;;;4406624;32;20626;-75
2023/08/19 06:59:38;;;;;;;9.90;2.37;;;22.30;99.90;;;;;;4394667;32;20083;-75
2023/08/19 07:02:05;;;;;;;0.50;0.50;;;22.50;99.90;;;;;;4398313;32;20074;-76
2023/08/19 07:04:31;;;;;;;1.17;0.70;;;22.60;99.90;;;;;;4389485;32;20074;-76
2023/08/19 07:06:59;;;;;;;1.55;0.80;;;22.70;99.90;;;;;;4389154;32;20086;-76
2023/08/19 07:09:25;;;;;;;1.02;0.85;;;22.80;99.90;;;;;;4390822;32;20402;-75
2023/08/19 07:11:55;;;;;;;1.65;0.57;;;22.90;99.90;;;;;;4387977;32;20098;-75
2023/08/19 07:14:21;;;;;;;1.37;0.97;;;23.10;99.90;;;;;;4388447;32;20062;-76
2023/08/19 07:16:50;;;;;;;0.45;0.45;;;23.20;99.90;;;;;;4389052;32;20180;-75
2023/08/19 07:19:21;;;;;;;0.40;0.40;;;23.30;99.90;;;;;;4395930;32;20066;-75
2023/08/19 07:21:47;;;;;;;0.37;0.35;;;23.30;99.90;;;;;;4404025;32;20120;-76
2023/08/19 07:24:13;;;;;;;0.85;0.57;;;23.40;99.90;;;;;;4403177;32;20494;-75
2023/08/19 07:26:40;;;;;;;0.90;0.68;;;23.50;99.90;;;;;;4406034;32;20070;-76
2023/08/19 07:29:05;;;;;;;2.58;0.93;;;23.50;99.90;;;;;;4405638;32;20141;-75
2023/08/19 07:31:31;;;;;;;0.55;0.55;;;23.60;99.90;;;;;;4403006;32;20450;-76
2023/08/19 07:33:58;;;;;;;0.57;0.57;;;23.70;99.90;;;;;;4405354;32;20073;-75
2023/08/19 07:36:25;;;;;;;0.88;0.88;;;23.80;99.90;;;;;;4403802;32;20082;-75
2023/08/19 07:38:51;;;;;;;3.05;0.95;;;23.90;99.90;;;;;;4403325;32;20580;-76
2023/08/19 07:41:18;;;;;;;5.30;1.02;;;24.10;99.90;;;;;;4403178;32;20074;-76
2023/08/19 07:43:44;;;;;;;0.90;0.60;;;24.10;99.90;;;;;;4403549;32;20125;-76
2023/08/19 07:46:09;;;;;;;1.40;0.50;;;24.30;99.90;;;;;;4404693;32;20093;-75
2023/08/19 07:48:35;;;;;;;0.95;0.35;;;24.30;99.90;;;;;;4403958;32;20058;-76
2023/08/19 07:51:00;;;;;;;1.05;0.85;;;24.40;99.90;;;;;;4403974;32;20086;-76
2023/08/19 07:53:25;;;;;;;0.30;0.30;;;24.50;99.90;;;;;;4406414;32;20462;-74
2023/08/19 07:55:51;;;;;;;1.87;0.60;;;24.60;99.90;;;;;;4405654;32;20070;-74
2023/08/19 07:58:16;;;;;;;0.75;0.57;;;24.70;99.90;;;;;;4405191;32;20070;-74
2023/08/19 08:00:42;;;;;;;1.00;0.62;;;24.70;99.90;;;;;;4404807;32;20525;-73
2023/08/19 08:03:08;;;;;;;1.10;0.70;;;24.80;99.90;;;;;;4404717;32;20062;-74
2023/08/19 08:05:33;;;;;;;1.08;0.75;;;24.90;99.90;;;;;;4405693;32;20086;-75
2023/08/19 08:07:59;;;;;;;0.98;0.88;;;25.00;99.90;;;;;;4404834;32;20065;-75
2023/08/19 08:10:24;;;;;;;0.40;0.40;;;25.10;99.90;;;;;;4404950;32;20078;-75
2023/08/19 08:12:50;;;;;;;0.80;0.80;;;25.20;99.90;;;;;;4406878;32;20082;-75
2023/08/19 08:15:15;;;;;;;2.58;0.52;;;25.20;99.90;;;;;;4405633;32;20070;-76
2023/08/19 08:17:41;;;;;;;0.55;0.55;;;25.30;99.90;;;;;;4406879;32;20066;-74
2023/08/19 08:20:07;;;;;;;0.47;0.47;;;25.40;99.90;;;;;;4405932;32;20085;-74
2023/08/19 08:22:33;;;;;;;0.25;0.25;;;25.40;99.90;;;;;;4406868;32;20067;-74
2023/08/19 08:24:59;;;;;;;0.35;0.35;;;25.50;99.90;;;;;;4406871;32;20073;-74
2023/08/19 08:27:25;;;;;;;0.60;0.60;;;25.60;99.90;;;;;;4406847;32;20057;-74
2023/08/19 08:29:50;;;;;;;0.82;0.45;;;25.70;99.90;;;;;;4405467;32;20070;-74
2023/08/19 08:32:16;;;;;;;0.75;0.50;;;25.80;99.90;;;;;;4405406;32;20545;-74
2023/08/19 08:34:42;;;;;;;1.62;0.90;;;25.80;99.90;;;;;;4406975;32;20505;-75
2023/08/19 08:37:07;;;;;;;2.65;0.80;;;25.80;99.90;;;;;;4405921;32;20074;-74
2023/08/19 08:39:33;;;;;;;2.87;0.57;;;25.80;99.90;;;;;;4406817;32;20133;-73
2023/08/19 08:41:59;;;;;;;0.30;0.30;;;25.80;99.90;;;;;;4405393;32;20071;-74
2023/08/19 08:44:26;;;;;;;1.95;0.40;;;25.90;99.90;;;;;;4405962;32;20065;-74
2023/08/19 08:46:53;;;;;;;0.40;0.40;;;26.00;99.90;;;;;;4409707;32;20073;-74
2023/08/19 08:49:19;;;;;;;1.62;0.95;;;26.10;99.90;;;;;;4409745;32;20105;-74
2023/08/19 08:51:44;;;;;;;0.35;0.35;;;26.20;99.90;;;;;;4410181;32;20062;-73
2023/08/19 08:54:10;;;;;;;1.52;0.57;;;26.30;99.90;;;;;;4408783;32;20169;-75
2023/08/19 08:56:36;;;;;;;1.45;0.68;;;26.40;99.90;;;;;;4410358;32;20086;-73
2023/08/19 08:59:02;;;;;;;15.27;0.65;;;26.50;99.90;;;;;;4409321;32;20074;-74
2023/08/19 09:01:28;;;;;;;1.98;0.47;;;26.60;99.90;;;;;;4404770;32;20066;-74
2023/08/19 09:04:00;;;;;;;0.95;0.62;;;26.70;99.90;;;;;;4393857;32;20125;-74
2023/08/19 09:06:26;;;;;;;0.98;0.52;;;26.80;99.90;;;;;;4394834;32;20065;-75
2023/08/19 09:09:00;;;;;;;1.33;0.60;;;27.00;99.90;;;;;;4393614;32;20488;-74
2023/08/19 09:11:27;;;;;;;0.30;0.30;;;27.10;99.90;;;;;;4392668;32;20078;-75
2023/08/19 09:14:03;;;;;;;0.45;0.45;;;27.20;99.90;;;;;;4391392;32;20070;-74
2023/08/19 09:16:29;;;;;;;0.82;0.52;;;27.30;99.90;;;;;;4394399;32;20078;-74
2023/08/19 09:18:54;;;;;;;0.52;0.52;;;27.40;99.90;;;;;;4392802;32;20087;-75
2023/08/19 09:21:20;;;;;;;1.62;0.47;;;27.40;99.90;;;;;;4393290;32;20078;-75
2023/08/19 09:23:45;;;;;;;0.30;0.30;;;27.50;99.90;;;;;;4393398;32;20066;-74
2023/08/19 09:26:11;;;;;;;0.55;0.55;;;27.70;99.90;;;;;;4394275;32;20086;-75
2023/08/19 09:28:37;;;;;;;0.57;0.57;;;27.80;99.90;;;;;;4393930;32;20121;-75
2023/08/19 09:31:18;;;;;;;0.70;0.35;;;28.00;99.90;;;;;;4393617;32;20075;-74
2023/08/19 09:33:44;;;;;;;2.05;0.80;;;28.20;99.90;;;;;;4392911;32;20070;-75
2023/08/19 09:36:10;;;;;;;2.28;0.88;;;28.20;99.90;;;;;;4394012;32;20126;-74
2023/08/19 09:38:35;;;;;;;1.95;0.35;;;28.30;99.90;;;;;;4393573;32;20382;-75
2023/08/19 09:41:03;;;;;;;0.40;0.30;;;28.40;99.90;;;;;;4393194;32;20078;-75
2023/08/19 09:43:30;;;;;;;0.28;0.28;;;28.50;99.90;;;;;;4393217;32;20498;-74
2023/08/19 09:45:57;;;;;;;0.88;0.85;;;28.50;99.90;;;;;;4406544;32;20070;-74
2023/08/19 09:48:23;;;;;;;0.95;0.60;;;28.60;99.90;;;;;;4407454;32;20830;-74
2023/08/19 09:50:49;;;;;;;1.45;0.50;;;28.60;99.90;;;;;;4408634;32;20086;-74
2023/08/19 09:53:16;;;;;;;0.40;0.40;;;28.60;99.90;;;;;;4408044;32;20438;-74
2023/08/19 09:55:46;;;;;;;0.80;0.57;;;28.80;99.90;;;;;;4407247;32;20094;-75
2023/08/19 09:58:12;;;;;;;0.93;0.68;;;28.90;99.90;;;;;;4409065;32;20571;-74
2023/08/19 10:00:38;;;;;;;0.70;0.47;;;29.10;99.90;;;;;;4407376;32;20074;-75
2023/08/19 10:03:05;;;;;;;0.80;0.52;;;29.20;99.90;;;;;;4407681;32;20082;-75
2023/08/19 10:05:34;;;;;;;0.20;0.20;;;29.50;99.90;;;;;;4408399;32;20482;-74
2023/08/19 10:08:03;;;;;;;0.88;0.47;;;29.60;99.90;;;;;;4410323;32;20062;-74
2023/08/19 10:10:30;;;;;;;5.50;1.70;;;29.80;99.90;;;;;;4409106;32;20276;-74
2023/08/19 10:12:57;;;;;;;0.93;0.60;;;30.00;99.90;;;;;;4410103;32;20119;-74
2023/08/19 10:15:26;;;;;;;1.75;0.80;;;30.20;99.90;;;;;;4409381;32;20066;-75
2023/08/19 10:17:57;;;;;;;0.47;0.47;;;30.40;99.90;;;;;;4409121;32;20078;-75
2023/08/19 10:20:25;;;;;;;;;;;30.20;99.90;;;;;;4410273;32;20069;-75
2023/08/19 10:22:53;;;;;;;0.50;0.45;;;30.30;99.90;;;;;;4411363;32;19950;-74
2023/08/19 10:25:20;;;;;;;0.28;0.28;;;30.30;99.90;;;;;;4412418;32;20172;-74
2023/08/19 10:27:46;;;;;;;1.35;0.88;;;30.40;99.90;;;;;;4409543;32;20122;-74
2023/08/19 10:30:28;;;;;;;0.60;0.57;;;30.70;99.90;;;;;;4412007;32;20082;-75
2023/08/19 10:32:54;;;;;;;1.62;0.90;;;31.00;99.90;;;;;;4412781;32;20062;-74
2023/08/19 10:35:19;;;;;;;0.15;0.15;;;31.10;99.90;;;;;;4411052;32;20050;-75
2023/08/19 10:37:48;;;;;;;0.70;0.50;;;31.20;99.90;;;;;;4411326;32;20054;-75
2023/08/19 10:40:20;;;;;;;0.40;0.40;;;31.20;99.90;;;;;;4409754;32;20067;-75
2023/08/19 10:43:01;;;;;;;0.52;0.52;;;31.30;99.90;;;;;;4410726;32;20529;-74
2023/08/19 10:45:33;;;;;;;0.85;0.75;;;31.40;99.90;;;;;;4409176;32;20069;-74
2023/08/19 10:47:58;;;;;;;1.37;0.80;;;31.70;99.90;;;;;;4409597;32;20067;-74
2023/08/19 10:50:25;;;;;;;0.88;0.68;;;31.70;99.90;;;;;;4409298;32;20066;-74
2023/08/19 10:53:07;;;;;;;1.95;0.68;;;31.70;99.90;;;;;;4408844;32;20121;-75
2023/08/19 10:55:53;;;;;;;1.77;0.60;;;31.80;99.90;;;;;;4410884;32;20066;-75
2023/08/19 10:58:20;;;;;;;0.50;0.50;;;32.00;99.90;;;;;;4401002;32;20088;-75
2023/08/19 11:00:47;;;;;;;0.50;0.30;;;31.90;99.90;;;;;;4412673;32;20038;-75
2023/08/19 11:03:12;;;;;;;1.23;1.05;;;32.10;99.90;;;;;;4410597;32;20053;-75
2023/08/19 11:05:48;;;;;;;0.20;0.20;;;32.20;99.90;;;;;;4411578;32;20082;-73
2023/08/19 11:08:14;;;;;;;2.37;1.25;;;32.40;99.90;;;;;;4411864;32;20070;-73
2023/08/19 11:10:39;;;;;;;0.20;0.20;;;32.50;99.90;;;;;;4411991;32;20202;-73
2023/08/19 11:13:06;;;;;;;0.28;0.22;;;32.70;99.90;;;;;;4410245;32;20090;-74
2023/08/19 11:15:31;;;;;;;0.90;0.35;;;32.90;99.90;;;;;;4413710;32;20018;-73
2023/08/19 11:17:58;;;;;;;0.20;0.20;;;33.10;99.90;;;;;;4412564;32;20070;-75
2023/08/19 11:20:28;;;;;;;1.12;0.80;;;33.30;99.90;;;;;;4413653;32;20121;-74
2023/08/19 11:22:55;;;;;;;0.37;0.37;;;33.50;99.90;;;;;;4412805;32;20502;-74
2023/08/19 11:25:20;;;;;;;0.55;0.55;;;33.50;99.90;;;;;;4412140;32;20038;-74
2023/08/19 11:27:46;;;;;;;0.20;0.20;;;33.60;99.90;;;;;;4410834;32;20121;-75
2023/08/19 11:30:14;;;;;;;0.35;0.35;;;33.60;99.90;;;;;;4411870;32;20059;-74
2023/08/19 11:32:45;;;;;;;0.30;0.30;;;33.50;99.90;;;;;;4410108;32;20098;-74
2023/08/19 11:35:10;;;;;;;0.77;0.60;;;33.80;99.90;;;;;;4411931;32;20121;-74
2023/08/19 11:37:36;;;;;;;0.73;0.73;;;33.90;99.90;;;;;;4411828;32;20050;-74
2023/08/19 11:40:05;;;;;;;0.65;0.65;;;33.90;99.90;;;;;;4413426;32;20087;-74
2023/08/19 11:42:30;;;;;;;0.37;0.37;;;33.90;99.90;;;;;;4412285;32;20058;-74
2023/08/19 11:44:56;;;;;;;0.52;0.52;;;33.90;99.90;;;;;;4411656;32;20070;-74
2023/08/19 11:47:22;;;;;;;0.65;0.50;;;34.00;99.90;;;;;;4406867;32;100073;-73
2023/08/19 11:49:47;;;;;;;0.40;0.40;;;34.10;99.90;;;;;;4409794;32;20133;-74
2023/08/19 11:52:21;;;;;;;0.20;0.20;;;34.10;99.90;;;;;;4412167;32;20061;-74
2023/08/19 11:54:58;;;;;;;1.12;0.70;;;34.30;99.80;;;;;;4413894;32;20058;-75
2023/08/19 11:57:23;;;;;;;1.73;1.00;;;34.50;98.10;;;;;;4413969;32;20050;-74
2023/08/19 11:59:56;;;;;;;1.85;1.15;;;34.70;96.40;;;;;;4412808;32;20070;-74
2023/08/19 12:02:22;;;;;;;1.67;0.88;;;34.80;95.60;;;;;;4402690;32;20042;-74
2023/08/19 12:04:53;;;;;;;0.73;0.73;;;35.30;94.90;;;;;;4398358;32;20070;-74
2023/08/19 12:07:25;;;;;;;0.95;0.20;;;35.50;95.20;;;;;;4398782;32;20114;-75
2023/08/19 12:09:50;;;;;;;1.42;0.68;;;35.50;95.70;;;;;;4391627;32;20095;-75
2023/08/19 12:12:16;;;;;;;0.20;0.20;;;35.70;94.30;;;;;;4396702;32;20051;-75
2023/08/19 12:14:41;;;;;;;5.78;0.40;;;35.50;93.90;;;;;;4395982;32;20082;-74
2023/08/19 12:17:07;;;;;;;0.30;0.30;;;35.60;93.70;;;;;;4396350;32;20066;-74
2023/08/19 12:19:33;;;;;;;1.00;0.50;;;35.90;93.10;;;;;;4396404;32;20098;-74
2023/08/19 12:21:59;;;;;;;0.90;0.65;;;36.00;93.50;;;;;;4398783;32;20083;-75
2023/08/19 12:24:25;;;;;;;0.57;0.57;;;36.20;93.60;;;;;;4397549;32;20086;-75
2023/08/19 12:26:50;;;;;;;0.52;0.43;;;36.30;93.40;;;;;;4399069;32;20070;-75
2023/08/19 12:29:16;;;;;;;0.30;0.30;;;36.20;93.60;;;;;;4398529;32;20054;-74
2023/08/19 12:31:41;;;;;;;0.20;0.20;;;36.30;93.10;;;;;;4397047;32;20066;-75
2023/08/19 12:34:07;;;;;;;2.55;1.08;;;36.60;92.30;;;;;;4397654;32;20090;-75
2023/08/19 12:36:32;;;;;;;0.13;0.13;;;37.00;91.40;;;;;;4400603;32;20075;-74
2023/08/19 12:38:57;;;;;;;0.20;0.20;;;37.20;91.00;;;;;;4399492;32;20086;-75
2023/08/19 12:41:23;;;;;;;0.22;0.22;;;37.40;91.00;;;;;;4400344;32;20069;-75
2023/08/19 12:43:48;;;;;;;0.20;0.20;;;37.40;91.90;;;;;;4397199;32;20130;-75
2023/08/19 12:46:17;;;;;;;0.57;0.57;;;37.50;90.20;;;;;;4394342;32;20086;-75